sensor_id;sensor_type;location;lat;lon;timestamp;temperature;humidity
1155;DHT22;566;48.414;9.118;2023-03-21T00:00:35;5.90;93.80
1155;DHT22;566;48.414;9.118;2023-03-21T00:03:00;5.80;93.20
1155;DHT22;566;48.414;9.118;2023-03-21T00:05:26;5.70;92.80
1155;DHT22;566;48.414;9.118;2023-03-21T00:07:59;5.70;92.60
1155;DHT22;566;48.414;9.118;2023-03-21T00:10:25;5.70;92.50
1155;DHT22;566;48.414;9.118;2023-03-21T00:12:51;5.60;91.70
1155;DHT22;566;48.414;9.118;2023-03-21T00:15:24;5.70;91.90
1155;DHT22;566;48.414;9.118;2023-03-21T00:17:56;5.70;92.40
1155;DHT22;566;48.414;9.118;2023-03-21T00:20:43;5.80;93.10
1155;DHT22;566;48.414;9.118;2023-03-21T00:23:16;6.00;93.60
1155;DHT22;566;48.414;9.118;2023-03-21T00:25:41;6.00;94.10
1155;DHT22;566;48.414;9.118;2023-03-21T00:28:07;6.10;94.90
1155;DHT22;566;48.414;9.118;2023-03-21T00:30:32;6.20;95.90
1155;DHT22;566;48.414;9.118;2023-03-21T00:32:58;6.20;95.90
1155;DHT22;566;48.414;9.118;2023-03-21T00:35:23;6.30;96.30
1155;DHT22;566;48.414;9.118;2023-03-21T00:37:49;6.40;96.20
1155;DHT22;566;48.414;9.118;2023-03-21T00:40:15;6.40;96.10
1155;DHT22;566;48.414;9.118;2023-03-21T00:42:41;6.40;96.10
1155;DHT22;566;48.414;9.118;2023-03-21T00:45:07;6.40;95.80
1155;DHT22;566;48.414;9.118;2023-03-21T00:47:34;6.40;95.70
1155;DHT22;566;48.414;9.118;2023-03-21T00:50:00;6.40;95.70
1155;DHT22;566;48.414;9.118;2023-03-21T00:52:26;6.40;95.70
1155;DHT22;566;48.414;9.118;2023-03-21T00:54:51;6.50;95.40
1155;DHT22;566;48.414;9.118;2023-03-21T00:57:17;6.50;95.70
1155;DHT22;566;48.414;9.118;2023-03-21T00:59:43;6.50;95.80
1155;DHT22;566;48.414;9.118;2023-03-21T01:02:08;6.50;95.70
1155;DHT22;566;48.414;9.118;2023-03-21T01:04:38;6.50;96.70
1155;DHT22;566;48.414;9.118;2023-03-21T01:07:04;6.60;96.60
1155;DHT22;566;48.414;9.118;2023-03-21T01:09:30;6.60;96.10
1155;DHT22;566;48.414;9.118;2023-03-21T01:11:55;6.60;96.70
1155;DHT22;566;48.414;9.118;2023-03-21T01:14:22;6.70;97.20
1155;DHT22;566;48.414;9.118;2023-03-21T01:16:50;6.70;97.10
1155;DHT22;566;48.414;9.118;2023-03-21T01:19:18;6.70;97.00
1155;DHT22;566;48.414;9.118;2023-03-21T01:21:44;6.70;96.80
1155;DHT22;566;48.414;9.118;2023-03-21T01:24:09;6.70;97.40
1155;DHT22;566;48.414;9.118;2023-03-21T01:26:36;6.70;97.30
1155;DHT22;566;48.414;9.118;2023-03-21T01:29:03;6.70;97.20
1155;DHT22;566;48.414;9.118;2023-03-21T01:31:29;6.70;97.30
1155;DHT22;566;48.414;9.118;2023-03-21T01:33:54;6.60;97.40
1155;DHT22;566;48.414;9.118;2023-03-21T01:36:22;6.70;97.50
1155;DHT22;566;48.414;9.118;2023-03-21T01:38:48;6.80;97.40
1155;DHT22;566;48.414;9.118;2023-03-21T01:41:35;6.80;97.70
1155;DHT22;566;48.414;9.118;2023-03-21T01:44:01;6.80;97.60
1155;DHT22;566;48.414;9.118;2023-03-21T01:46:41;6.80;97.30
1155;DHT22;566;48.414;9.118;2023-03-21T01:49:32;6.70;96.90
1155;DHT22;566;48.414;9.118;2023-03-21T01:52:05;6.70;96.50
1155;DHT22;566;48.414;9.118;2023-03-21T01:54:34;6.70;95.80
1155;DHT22;566;48.414;9.118;2023-03-21T01:57:08;6.70;95.80
1155;DHT22;566;48.414;9.118;2023-03-21T01:59:48;6.60;96.00
1155;DHT22;566;48.414;9.118;2023-03-21T02:02:22;6.60;95.90
1155;DHT22;566;48.414;9.118;2023-03-21T02:04:49;6.60;95.90
1155;DHT22;566;48.414;9.118;2023-03-21T02:07:34;6.60;95.80
1155;DHT22;566;48.414;9.118;2023-03-21T02:10:02;6.60;95.80
1155;DHT22;566;48.414;9.118;2023-03-21T02:12:31;6.60;96.00
1155;DHT22;566;48.414;9.118;2023-03-21T02:14:56;6.50;95.70
1155;DHT22;566;48.414;9.118;2023-03-21T02:17:36;6.60;95.90
1155;DHT22;566;48.414;9.118;2023-03-21T02:33:40;6.70;96.80
1155;DHT22;566;48.414;9.118;2023-03-21T02:43:56;6.70;96.80
1155;DHT22;566;48.414;9.118;2023-03-21T02:46:29;6.70;96.70
1155;DHT22;566;48.414;9.118;2023-03-21T02:52:25;6.70;96.60
1155;DHT22;566;48.414;9.118;2023-03-21T02:54:54;6.70;96.90
1155;DHT22;566;48.414;9.118;2023-03-21T02:57:20;6.70;96.40
1155;DHT22;566;48.414;9.118;2023-03-21T02:59:48;6.60;96.70
1155;DHT22;566;48.414;9.118;2023-03-21T03:02:17;6.60;96.20
1155;DHT22;566;48.414;9.118;2023-03-21T03:04:45;6.60;95.60
1155;DHT22;566;48.414;9.118;2023-03-21T03:07:39;6.50;95.30
1155;DHT22;566;48.414;9.118;2023-03-21T03:12:56;6.50;95.00
1155;DHT22;566;48.414;9.118;2023-03-21T03:15:42;6.40;94.90
1155;DHT22;566;48.414;9.118;2023-03-21T03:20:49;6.50;95.40
1155;DHT22;566;48.414;9.118;2023-03-21T03:25:56;6.50;96.70
1155;DHT22;566;48.414;9.118;2023-03-21T03:28:29;6.60;96.20
1155;DHT22;566;48.414;9.118;2023-03-21T03:30:57;6.60;96.40
1155;DHT22;566;48.414;9.118;2023-03-21T03:33:25;6.60;95.80
1155;DHT22;566;48.414;9.118;2023-03-21T03:35:54;6.60;96.10
1155;DHT22;566;48.414;9.118;2023-03-21T03:38:22;6.60;96.30
1155;DHT22;566;48.414;9.118;2023-03-21T03:40:54;6.60;96.10
1155;DHT22;566;48.414;9.118;2023-03-21T03:43:29;6.50;95.60
1155;DHT22;566;48.414;9.118;2023-03-21T03:46:03;6.50;95.80
1155;DHT22;566;48.414;9.118;2023-03-21T03:48:39;6.50;95.60
1155;DHT22;566;48.414;9.118;2023-03-21T03:51:36;6.50;95.70
1155;DHT22;566;48.414;9.118;2023-03-21T03:54:06;6.40;95.90
1155;DHT22;566;48.414;9.118;2023-03-21T03:56:33;6.30;95.90
1155;DHT22;566;48.414;9.118;2023-03-21T03:59:03;6.20;94.90
1155;DHT22;566;48.414;9.118;2023-03-21T04:01:29;6.20;95.20
1155;DHT22;566;48.414;9.118;2023-03-21T04:03:54;6.10;95.00
1155;DHT22;566;48.414;9.118;2023-03-21T04:06:20;6.00;94.90
1155;DHT22;566;48.414;9.118;2023-03-21T04:08:47;6.00;94.90
1155;DHT22;566;48.414;9.118;2023-03-21T04:11:14;5.90;94.50
1155;DHT22;566;48.414;9.118;2023-03-21T04:13:42;5.80;94.60
1155;DHT22;566;48.414;9.118;2023-03-21T04:16:08;5.70;94.30
1155;DHT22;566;48.414;9.118;2023-03-21T04:18:36;5.60;93.90
1155;DHT22;566;48.414;9.118;2023-03-21T04:21:10;5.60;94.20
1155;DHT22;566;48.414;9.118;2023-03-21T04:23:37;5.60;94.10
1155;DHT22;566;48.414;9.118;2023-03-21T04:26:04;5.60;94.40
1155;DHT22;566;48.414;9.118;2023-03-21T04:28:31;5.60;94.50
1155;DHT22;566;48.414;9.118;2023-03-21T04:30:58;5.60;94.70
1155;DHT22;566;48.414;9.118;2023-03-21T04:33:24;5.60;95.00
1155;DHT22;566;48.414;9.118;2023-03-21T04:35:52;5.60;95.30
1155;DHT22;566;48.414;9.118;2023-03-21T04:38:24;5.60;95.50
1155;DHT22;566;48.414;9.118;2023-03-21T04:40:51;5.60;95.60
1155;DHT22;566;48.414;9.118;2023-03-21T04:43:17;5.60;95.40
1155;DHT22;566;48.414;9.118;2023-03-21T04:45:42;5.60;95.50
1155;DHT22;566;48.414;9.118;2023-03-21T04:48:08;5.60;95.30
1155;DHT22;566;48.414;9.118;2023-03-21T04:50:33;5.60;95.40
1155;DHT22;566;48.414;9.118;2023-03-21T04:52:59;5.60;95.40
1155;DHT22;566;48.414;9.118;2023-03-21T04:55:25;5.60;95.50
1155;DHT22;566;48.414;9.118;2023-03-21T04:57:51;5.60;95.90
1155;DHT22;566;48.414;9.118;2023-03-21T05:00:20;5.60;95.30
1155;DHT22;566;48.414;9.118;2023-03-21T05:02:47;5.60;95.50
1155;DHT22;566;48.414;9.118;2023-03-21T05:05:12;5.60;95.60
1155;DHT22;566;48.414;9.118;2023-03-21T05:07:42;5.60;95.70
1155;DHT22;566;48.414;9.118;2023-03-21T05:10:10;5.60;95.80
1155;DHT22;566;48.414;9.118;2023-03-21T05:12:36;5.70;96.00
1155;DHT22;566;48.414;9.118;2023-03-21T05:15:03;5.70;96.20
1155;DHT22;566;48.414;9.118;2023-03-21T05:17:29;5.80;96.50
1155;DHT22;566;48.414;9.118;2023-03-21T05:19:55;5.70;96.30
1155;DHT22;566;48.414;9.118;2023-03-21T05:22:22;5.70;96.50
1155;DHT22;566;48.414;9.118;2023-03-21T05:24:49;5.80;96.70
1155;DHT22;566;48.414;9.118;2023-03-21T05:27:16;5.80;96.50
1155;DHT22;566;48.414;9.118;2023-03-21T05:30:09;5.80;96.40
1155;DHT22;566;48.414;9.118;2023-03-21T05:32:35;5.80;96.30
1155;DHT22;566;48.414;9.118;2023-03-21T05:35:01;5.90;96.50
1155;DHT22;566;48.414;9.118;2023-03-21T05:37:26;6.00;96.60
1155;DHT22;566;48.414;9.118;2023-03-21T05:39:52;6.10;96.70
1155;DHT22;566;48.414;9.118;2023-03-21T05:42:18;6.20;97.20
1155;DHT22;566;48.414;9.118;2023-03-21T05:44:44;6.30;97.20
1155;DHT22;566;48.414;9.118;2023-03-21T05:47:12;6.30;97.10
1155;DHT22;566;48.414;9.118;2023-03-21T05:49:38;6.30;98.00
1155;DHT22;566;48.414;9.118;2023-03-21T05:52:04;6.40;98.00
1155;DHT22;566;48.414;9.118;2023-03-21T05:54:29;6.50;98.00
1155;DHT22;566;48.414;9.118;2023-03-21T05:56:55;6.50;98.00
1155;DHT22;566;48.414;9.118;2023-03-21T05:59:20;6.60;98.00
1155;DHT22;566;48.414;9.118;2023-03-21T06:01:46;6.60;98.00
1155;DHT22;566;48.414;9.118;2023-03-21T06:04:11;6.60;98.00
1155;DHT22;566;48.414;9.118;2023-03-21T06:06:40;6.60;98.00
1155;DHT22;566;48.414;9.118;2023-03-21T06:09:08;6.60;98.00
1155;DHT22;566;48.414;9.118;2023-03-21T06:11:35;6.60;98.00
1155;DHT22;566;48.414;9.118;2023-03-21T06:14:01;6.60;98.00
1155;DHT22;566;48.414;9.118;2023-03-21T06:16:27;6.70;98.00
1155;DHT22;566;48.414;9.118;2023-03-21T06:18:54;6.80;98.00
1155;DHT22;566;48.414;9.118;2023-03-21T06:21:20;6.90;98.00
1155;DHT22;566;48.414;9.118;2023-03-21T06:23:46;6.90;98.00
1155;DHT22;566;48.414;9.118;2023-03-21T06:26:12;7.00;98.00
1155;DHT22;566;48.414;9.118;2023-03-21T06:28:38;7.10;98.00
1155;DHT22;566;48.414;9.118;2023-03-21T06:31:04;7.20;98.00
1155;DHT22;566;48.414;9.118;2023-03-21T06:33:30;7.40;98.00
1155;DHT22;566;48.414;9.118;2023-03-21T06:35:57;7.50;98.00
1155;DHT22;566;48.414;9.118;2023-03-21T06:38:24;7.70;98.00
1155;DHT22;566;48.414;9.118;2023-03-21T06:40:50;7.80;98.00
1155;DHT22;566;48.414;9.118;2023-03-21T06:43:18;8.00;98.00
1155;DHT22;566;48.414;9.118;2023-03-21T06:45:44;8.00;98.00
1155;DHT22;566;48.414;9.118;2023-03-21T06:48:10;8.00;98.00
1155;DHT22;566;48.414;9.118;2023-03-21T06:50:38;8.10;98.00
1155;DHT22;566;48.414;9.118;2023-03-21T06:53:04;8.10;98.00
1155;DHT22;566;48.414;9.118;2023-03-21T06:55:30;8.10;98.00
1155;DHT22;566;48.414;9.118;2023-03-21T06:57:56;8.20;98.00
1155;DHT22;566;48.414;9.118;2023-03-21T07:00:22;8.20;98.00
1155;DHT22;566;48.414;9.118;2023-03-21T07:02:48;8.30;98.00
1155;DHT22;566;48.414;9.118;2023-03-21T07:05:15;8.30;98.00
1155;DHT22;566;48.414;9.118;2023-03-21T07:07:41;8.30;98.00
1155;DHT22;566;48.414;9.118;2023-03-21T07:10:07;8.40;98.00
1155;DHT22;566;48.414;9.118;2023-03-21T07:12:33;8.50;98.00
1155;DHT22;566;48.414;9.118;2023-03-21T07:15:03;8.70;98.00
1155;DHT22;566;48.414;9.118;2023-03-21T07:17:29;8.80;97.60
1155;DHT22;566;48.414;9.118;2023-03-21T07:19:55;8.80;97.70
1155;DHT22;566;48.414;9.118;2023-03-21T07:22:20;8.90;97.80
1155;DHT22;566;48.414;9.118;2023-03-21T07:24:46;9.00;97.40
1155;DHT22;566;48.414;9.118;2023-03-21T07:27:16;9.20;96.90
1155;DHT22;566;48.414;9.118;2023-03-21T07:29:42;9.40;96.70
1155;DHT22;566;48.414;9.118;2023-03-21T07:32:11;9.50;95.90
1155;DHT22;566;48.414;9.118;2023-03-21T07:34:37;9.50;95.30
1155;DHT22;566;48.414;9.118;2023-03-21T07:37:03;9.50;94.50
1155;DHT22;566;48.414;9.118;2023-03-21T07:39:29;9.60;94.20
1155;DHT22;566;48.414;9.118;2023-03-21T07:41:57;9.90;93.50
1155;DHT22;566;48.414;9.118;2023-03-21T07:44:23;10.10;92.30
1155;DHT22;566;48.414;9.118;2023-03-21T07:46:49;10.30;91.30
1155;DHT22;566;48.414;9.118;2023-03-21T07:49:15;10.50;89.80
1155;DHT22;566;48.414;9.118;2023-03-21T07:51:40;10.70;88.80
1155;DHT22;566;48.414;9.118;2023-03-21T07:54:06;10.80;87.50
1155;DHT22;566;48.414;9.118;2023-03-21T07:56:32;10.90;87.70
1155;DHT22;566;48.414;9.118;2023-03-21T07:58:57;11.10;86.90
1155;DHT22;566;48.414;9.118;2023-03-21T08:01:24;11.30;87.00
1155;DHT22;566;48.414;9.118;2023-03-21T08:03:50;11.50;87.80
1155;DHT22;566;48.414;9.118;2023-03-21T08:06:18;11.70;86.90
1155;DHT22;566;48.414;9.118;2023-03-21T08:08:44;12.00;85.70
1155;DHT22;566;48.414;9.118;2023-03-21T08:11:10;12.20;85.00
1155;DHT22;566;48.414;9.118;2023-03-21T08:13:36;12.50;84.30
1155;DHT22;566;48.414;9.118;2023-03-21T08:16:01;12.70;82.50
1155;DHT22;566;48.414;9.118;2023-03-21T08:18:27;12.80;81.90
1155;DHT22;566;48.414;9.118;2023-03-21T08:20:56;13.00;80.40
1155;DHT22;566;48.414;9.118;2023-03-21T08:23:22;13.30;79.40
1155;DHT22;566;48.414;9.118;2023-03-21T08:25:55;13.70;78.00
1155;DHT22;566;48.414;9.118;2023-03-21T08:28:22;13.90;78.00
1155;DHT22;566;48.414;9.118;2023-03-21T08:30:48;14.60;76.30
1155;DHT22;566;48.414;9.118;2023-03-21T08:33:14;15.90;73.60
1155;DHT22;566;48.414;9.118;2023-03-21T08:35:40;17.10;71.20
1155;DHT22;566;48.414;9.118;2023-03-21T08:38:06;18.70;69.00
1155;DHT22;566;48.414;9.118;2023-03-21T08:40:32;20.10;64.20
1155;DHT22;566;48.414;9.118;2023-03-21T08:42:58;21.00;63.00
1155;DHT22;566;48.414;9.118;2023-03-21T08:45:27;21.90;60.50
1155;DHT22;566;48.414;9.118;2023-03-21T08:47:53;21.20;60.90
1155;DHT22;566;48.414;9.118;2023-03-21T08:50:21;21.20;62.40
1155;DHT22;566;48.414;9.118;2023-03-21T08:52:50;21.10;62.20
1155;DHT22;566;48.414;9.118;2023-03-21T08:55:16;20.90;62.90
1155;DHT22;566;48.414;9.118;2023-03-21T08:57:43;20.80;63.80
1155;DHT22;566;48.414;9.118;2023-03-21T09:00:11;20.80;63.50
1155;DHT22;566;48.414;9.118;2023-03-21T09:02:42;20.20;64.50
1155;DHT22;566;48.414;9.118;2023-03-21T09:05:08;19.90;65.20
1155;DHT22;566;48.414;9.118;2023-03-21T09:07:36;19.80;65.50
1155;DHT22;566;48.414;9.118;2023-03-21T09:10:06;19.50;65.30
1155;DHT22;566;48.414;9.118;2023-03-21T09:12:33;19.70;65.40
1155;DHT22;566;48.414;9.118;2023-03-21T09:14:59;19.30;65.80
1155;DHT22;566;48.414;9.118;2023-03-21T09:17:27;18.50;66.60
1155;DHT22;566;48.414;9.118;2023-03-21T09:19:53;18.30;67.80
1155;DHT22;566;48.414;9.118;2023-03-21T09:22:19;18.50;67.70
1155;DHT22;566;48.414;9.118;2023-03-21T09:24:46;18.50;67.10
1155;DHT22;566;48.414;9.118;2023-03-21T09:27:14;18.80;67.30
1155;DHT22;566;48.414;9.118;2023-03-21T09:29:44;17.70;68.70
1155;DHT22;566;48.414;9.118;2023-03-21T09:32:10;17.40;70.10
1155;DHT22;566;48.414;9.118;2023-03-21T09:34:38;17.20;70.70
1155;DHT22;566;48.414;9.118;2023-03-21T09:37:06;18.00;70.10
1155;DHT22;566;48.414;9.118;2023-03-21T09:39:38;18.60;68.60
1155;DHT22;566;48.414;9.118;2023-03-21T09:42:28;18.80;67.00
1155;DHT22;566;48.414;9.118;2023-03-21T09:45:10;18.90;67.60
1155;DHT22;566;48.414;9.118;2023-03-21T09:47:45;18.90;67.70
1155;DHT22;566;48.414;9.118;2023-03-21T09:50:37;19.60;65.20
1155;DHT22;566;48.414;9.118;2023-03-21T09:53:12;20.70;64.90
1155;DHT22;566;48.414;9.118;2023-03-21T09:55:40;20.70;63.10
1155;DHT22;566;48.414;9.118;2023-03-21T09:58:26;20.00;63.90
1155;DHT22;566;48.414;9.118;2023-03-21T10:01:03;20.20;63.60
1155;DHT22;566;48.414;9.118;2023-03-21T10:03:32;20.60;63.70
1155;DHT22;566;48.414;9.118;2023-03-21T10:06:03;21.10;63.00
1155;DHT22;566;48.414;9.118;2023-03-21T10:08:34;20.70;63.20
1155;DHT22;566;48.414;9.118;2023-03-21T10:11:10;20.40;64.30
1155;DHT22;566;48.414;9.118;2023-03-21T10:13:41;19.90;64.20
1155;DHT22;566;48.414;9.118;2023-03-21T10:16:30;20.00;65.60
1155;DHT22;566;48.414;9.118;2023-03-21T10:18:59;19.90;64.40
1155;DHT22;566;48.414;9.118;2023-03-21T10:21:27;20.30;63.60
1155;DHT22;566;48.414;9.118;2023-03-21T10:23:55;19.80;63.00
1155;DHT22;566;48.414;9.118;2023-03-21T10:26:24;19.40;64.60
1155;DHT22;566;48.414;9.118;2023-03-21T10:28:54;19.50;65.60
1155;DHT22;566;48.414;9.118;2023-03-21T10:31:23;19.50;64.50
1155;DHT22;566;48.414;9.118;2023-03-21T10:33:52;19.10;65.70
1155;DHT22;566;48.414;9.118;2023-03-21T10:36:24;19.00;65.60
1155;DHT22;566;48.414;9.118;2023-03-21T10:39:17;19.20;65.70
1155;DHT22;566;48.414;9.118;2023-03-21T10:41:46;19.20;66.60
1155;DHT22;566;48.414;9.118;2023-03-21T10:44:19;18.60;66.10
1155;DHT22;566;48.414;9.118;2023-03-21T10:46:51;18.50;68.30
1155;DHT22;566;48.414;9.118;2023-03-21T10:49:17;18.70;67.10
1155;DHT22;566;48.414;9.118;2023-03-21T10:51:46;18.60;67.30
1155;DHT22;566;48.414;9.118;2023-03-21T10:54:15;18.20;67.60
1155;DHT22;566;48.414;9.118;2023-03-21T10:57:21;17.70;68.50
1155;DHT22;566;48.414;9.118;2023-03-21T10:59:54;17.50;69.10
1155;DHT22;566;48.414;9.118;2023-03-21T11:02:30;17.50;69.90
1155;DHT22;566;48.414;9.118;2023-03-21T11:05:03;17.10;70.80
1155;DHT22;566;48.414;9.118;2023-03-21T11:07:30;17.00;71.40
1155;DHT22;566;48.414;9.118;2023-03-21T11:10:00;16.80;71.20
1155;DHT22;566;48.414;9.118;2023-03-21T11:12:34;16.70;72.00
1155;DHT22;566;48.414;9.118;2023-03-21T11:15:31;16.90;71.30
1155;DHT22;566;48.414;9.118;2023-03-21T11:17:58;17.20;70.90
1155;DHT22;566;48.414;9.118;2023-03-21T11:20:25;17.00;70.70
1155;DHT22;566;48.414;9.118;2023-03-21T11:22:54;17.20;70.80
1155;DHT22;566;48.414;9.118;2023-03-21T11:25:26;17.60;71.50
1155;DHT22;566;48.414;9.118;2023-03-21T11:27:56;17.40;70.40
1155;DHT22;566;48.414;9.118;2023-03-21T11:30:24;17.40;70.80
1155;DHT22;566;48.414;9.118;2023-03-21T11:32:54;17.20;71.90
1155;DHT22;566;48.414;9.118;2023-03-21T11:38:37;17.00;72.40
1155;DHT22;566;48.414;9.118;2023-03-21T11:41:05;16.80;72.70
1155;DHT22;566;48.414;9.118;2023-03-21T11:43:37;16.80;72.00
1155;DHT22;566;48.414;9.118;2023-03-21T11:48:29;17.00;73.10
1155;DHT22;566;48.414;9.118;2023-03-21T11:51:03;16.70;72.40
1155;DHT22;566;48.414;9.118;2023-03-21T11:56:27;16.50;74.80
1155;DHT22;566;48.414;9.118;2023-03-21T12:05:04;16.40;74.20
1155;DHT22;566;48.414;9.118;2023-03-21T12:07:51;16.70;73.90
1155;DHT22;566;48.414;9.118;2023-03-21T12:21:25;16.90;72.70
1155;DHT22;566;48.414;9.118;2023-03-21T12:24:09;16.80;72.90
1155;DHT22;566;48.414;9.118;2023-03-21T12:26:55;17.20;72.50
1155;DHT22;566;48.414;9.118;2023-03-21T12:29:31;17.30;72.90
1155;DHT22;566;48.414;9.118;2023-03-21T12:32:09;17.60;72.00
1155;DHT22;566;48.414;9.118;2023-03-21T12:37:25;17.50;72.40
1155;DHT22;566;48.414;9.118;2023-03-21T12:40:02;17.60;71.80
1155;DHT22;566;48.414;9.118;2023-03-21T12:42:47;17.90;71.80
1155;DHT22;566;48.414;9.118;2023-03-21T12:45:20;18.00;69.90
1155;DHT22;566;48.414;9.118;2023-03-21T12:48:10;18.30;69.60
1155;DHT22;566;48.414;9.118;2023-03-21T12:50:38;18.20;68.80
1155;DHT22;566;48.414;9.118;2023-03-21T12:56:10;18.10;68.50
1155;DHT22;566;48.414;9.118;2023-03-21T12:58:47;18.40;67.60
1155;DHT22;566;48.414;9.118;2023-03-21T13:01:15;18.90;66.90
1155;DHT22;566;48.414;9.118;2023-03-21T13:03:47;19.00;65.80
1155;DHT22;566;48.414;9.118;2023-03-21T13:06:16;19.10;67.00
1155;DHT22;566;48.414;9.118;2023-03-21T13:11:22;19.70;66.10
1155;DHT22;566;48.414;9.118;2023-03-21T13:14:03;20.20;63.50
1155;DHT22;566;48.414;9.118;2023-03-21T13:19:33;19.80;63.00
1155;DHT22;566;48.414;9.118;2023-03-21T13:22:33;18.80;63.80
1155;DHT22;566;48.414;9.118;2023-03-21T13:25:05;18.50;64.20
1155;DHT22;566;48.414;9.118;2023-03-21T13:27:36;18.70;63.90
1155;DHT22;566;48.414;9.118;2023-03-21T13:30:06;19.20;63.40
1155;DHT22;566;48.414;9.118;2023-03-21T13:32:44;19.60;62.00
1155;DHT22;566;48.414;9.118;2023-03-21T13:35:43;19.70;61.70
1155;DHT22;566;48.414;9.118;2023-03-21T13:38:15;19.40;61.20
1155;DHT22;566;48.414;9.118;2023-03-21T13:40:47;19.40;60.60
1155;DHT22;566;48.414;9.118;2023-03-21T13:43:54;19.20;61.40
1155;DHT22;566;48.414;9.118;2023-03-21T13:49:14;19.60;61.30
1155;DHT22;566;48.414;9.118;2023-03-21T13:51:54;19.80;61.50
1155;DHT22;566;48.414;9.118;2023-03-21T13:56:48;19.00;61.50
1155;DHT22;566;48.414;9.118;2023-03-21T14:02:21;19.00;62.60
1155;DHT22;566;48.414;9.118;2023-03-21T14:04:45;19.50;60.90
1155;DHT22;566;48.414;9.118;2023-03-21T14:07:20;19.80;60.80
1155;DHT22;566;48.414;9.118;2023-03-21T14:09:50;19.40;60.40
1155;DHT22;566;48.414;9.118;2023-03-21T14:12:21;18.80;61.80
1155;DHT22;566;48.414;9.118;2023-03-21T14:15:04;18.20;63.50
1155;DHT22;566;48.414;9.118;2023-03-21T14:17:32;18.00;64.00
1155;DHT22;566;48.414;9.118;2023-03-21T14:20:24;17.80;63.00
1155;DHT22;566;48.414;9.118;2023-03-21T14:22:50;17.60;60.60
1155;DHT22;566;48.414;9.118;2023-03-21T14:25:18;17.40;60.50
1155;DHT22;566;48.414;9.118;2023-03-21T14:27:48;17.20;61.30
1155;DHT22;566;48.414;9.118;2023-03-21T14:30:37;17.10;60.90
1155;DHT22;566;48.414;9.118;2023-03-21T14:33:16;16.90;60.80
1155;DHT22;566;48.414;9.118;2023-03-21T14:35:45;16.80;60.90
1155;DHT22;566;48.414;9.118;2023-03-21T14:38:26;17.00;61.80
1155;DHT22;566;48.414;9.118;2023-03-21T14:40:56;17.20;60.80
1155;DHT22;566;48.414;9.118;2023-03-21T14:43:23;17.00;62.10
1155;DHT22;566;48.414;9.118;2023-03-21T14:45:51;16.90;62.40
1155;DHT22;566;48.414;9.118;2023-03-21T14:48:19;16.80;63.20
1155;DHT22;566;48.414;9.118;2023-03-21T14:50:53;16.70;63.60
1155;DHT22;566;48.414;9.118;2023-03-21T14:53:27;16.50;63.60
1155;DHT22;566;48.414;9.118;2023-03-21T14:55:57;16.60;64.00
1155;DHT22;566;48.414;9.118;2023-03-21T14:58:26;16.70;63.90
1155;DHT22;566;48.414;9.118;2023-03-21T15:00:56;16.50;63.20
1155;DHT22;566;48.414;9.118;2023-03-21T15:03:23;16.40;64.10
1155;DHT22;566;48.414;9.118;2023-03-21T15:05:52;16.50;63.90
1155;DHT22;566;48.414;9.118;2023-03-21T15:08:19;16.50;64.30
1155;DHT22;566;48.414;9.118;2023-03-21T15:11:10;16.50;64.30
1155;DHT22;566;48.414;9.118;2023-03-21T15:13:47;16.30;64.70
1155;DHT22;566;48.414;9.118;2023-03-21T15:16:15;16.20;65.50
1155;DHT22;566;48.414;9.118;2023-03-21T15:18:41;16.10;66.20
1155;DHT22;566;48.414;9.118;2023-03-21T15:21:13;16.20;66.30
1155;DHT22;566;48.414;9.118;2023-03-21T15:23:46;16.10;66.00
1155;DHT22;566;48.414;9.118;2023-03-21T15:26:19;15.80;66.90
1155;DHT22;566;48.414;9.118;2023-03-21T15:28:47;15.60;67.60
1155;DHT22;566;48.414;9.118;2023-03-21T15:31:20;15.50;67.70
1155;DHT22;566;48.414;9.118;2023-03-21T15:33:48;15.40;69.10
1155;DHT22;566;48.414;9.118;2023-03-21T15:36:23;15.30;69.40
1155;DHT22;566;48.414;9.118;2023-03-21T15:38:49;15.10;70.80
1155;DHT22;566;48.414;9.118;2023-03-21T15:43:44;15.00;71.80
1155;DHT22;566;48.414;9.118;2023-03-21T15:46:30;14.90;71.80
1155;DHT22;566;48.414;9.118;2023-03-21T15:49:15;14.70;72.60
1155;DHT22;566;48.414;9.118;2023-03-21T15:54:17;14.50;73.80
1155;DHT22;566;48.414;9.118;2023-03-21T15:56:46;14.50;73.90
1155;DHT22;566;48.414;9.118;2023-03-21T15:59:16;14.40;74.10
1155;DHT22;566;48.414;9.118;2023-03-21T16:01:45;14.40;74.40
1155;DHT22;566;48.414;9.118;2023-03-21T16:04:11;14.40;73.80
1155;DHT22;566;48.414;9.118;2023-03-21T16:09:22;14.10;76.60
1155;DHT22;566;48.414;9.118;2023-03-21T16:11:50;13.90;76.40
1155;DHT22;566;48.414;9.118;2023-03-21T16:14:19;13.70;76.80
1155;DHT22;566;48.414;9.118;2023-03-21T16:16:45;13.70;79.60
1155;DHT22;566;48.414;9.118;2023-03-21T16:19:11;13.80;76.90
1155;DHT22;566;48.414;9.118;2023-03-21T16:21:37;13.90;77.20
1155;DHT22;566;48.414;9.118;2023-03-21T16:24:07;14.10;77.40
1155;DHT22;566;48.414;9.118;2023-03-21T16:26:36;14.10;77.50
1155;DHT22;566;48.414;9.118;2023-03-21T16:29:03;14.20;77.60
1155;DHT22;566;48.414;9.118;2023-03-21T16:31:31;14.20;77.90
1155;DHT22;566;48.414;9.118;2023-03-21T16:33:57;14.10;77.20
1155;DHT22;566;48.414;9.118;2023-03-21T16:36:28;14.00;76.40
1155;DHT22;566;48.414;9.118;2023-03-21T16:38:54;13.90;76.50
1155;DHT22;566;48.414;9.118;2023-03-21T16:41:22;13.80;77.10
1155;DHT22;566;48.414;9.118;2023-03-21T16:43:48;13.70;78.00
1155;DHT22;566;48.414;9.118;2023-03-21T16:46:23;13.60;77.90
1155;DHT22;566;48.414;9.118;2023-03-21T16:48:51;13.60;77.70
1155;DHT22;566;48.414;9.118;2023-03-21T16:51:22;13.50;78.00
1155;DHT22;566;48.414;9.118;2023-03-21T16:53:51;13.40;77.50
1155;DHT22;566;48.414;9.118;2023-03-21T16:56:20;13.30;77.60
1155;DHT22;566;48.414;9.118;2023-03-21T16:58:46;13.30;76.70
1155;DHT22;566;48.414;9.118;2023-03-21T17:01:17;13.30;76.60
1155;DHT22;566;48.414;9.118;2023-03-21T17:03:47;13.30;80.30
1155;DHT22;566;48.414;9.118;2023-03-21T17:06:18;13.20;81.30
1155;DHT22;566;48.414;9.118;2023-03-21T17:08:44;13.00;81.70
1155;DHT22;566;48.414;9.118;2023-03-21T17:11:16;12.90;81.50
1155;DHT22;566;48.414;9.118;2023-03-21T17:13:42;12.90;81.30
1155;DHT22;566;48.414;9.118;2023-03-21T17:16:17;12.80;81.00
1155;DHT22;566;48.414;9.118;2023-03-21T17:18:43;12.80;80.60
1155;DHT22;566;48.414;9.118;2023-03-21T17:23:39;12.60;81.80
1155;DHT22;566;48.414;9.118;2023-03-21T17:26:05;12.60;81.70
1155;DHT22;566;48.414;9.118;2023-03-21T17:28:38;12.50;82.00
1155;DHT22;566;48.414;9.118;2023-03-21T17:31:15;12.50;82.10
1155;DHT22;566;48.414;9.118;2023-03-21T17:33:42;12.40;82.30
1155;DHT22;566;48.414;9.118;2023-03-21T17:36:15;12.30;82.10
1155;DHT22;566;48.414;9.118;2023-03-21T17:38:42;12.30;82.80
1155;DHT22;566;48.414;9.118;2023-03-21T17:41:13;12.20;83.50
1155;DHT22;566;48.414;9.118;2023-03-21T17:43:39;12.20;83.30
1155;DHT22;566;48.414;9.118;2023-03-21T17:46:06;12.20;83.20
1155;DHT22;566;48.414;9.118;2023-03-21T17:48:35;12.20;83.30
1155;DHT22;566;48.414;9.118;2023-03-21T17:51:00;12.10;83.10
1155;DHT22;566;48.414;9.118;2023-03-21T17:53:26;12.00;84.30
1155;DHT22;566;48.414;9.118;2023-03-21T17:55:52;11.80;84.80
1155;DHT22;566;48.414;9.118;2023-03-21T17:58:18;11.70;84.80
1155;DHT22;566;48.414;9.118;2023-03-21T18:00:43;11.60;86.10
1155;DHT22;566;48.414;9.118;2023-03-21T18:03:10;11.50;86.90
1155;DHT22;566;48.414;9.118;2023-03-21T18:05:37;11.40;88.20
1155;DHT22;566;48.414;9.118;2023-03-21T18:08:03;11.40;89.00
1155;DHT22;566;48.414;9.118;2023-03-21T18:10:29;11.30;89.40